Time;durP1;ratioP1;P1;durP2;ratioP2;P2;SDS_P1;SDS_P2;PMS_P1;PMS_P2;Temp;Humidity;BMP_temperature;BMP_pressure;BME280_temperature;BME280_humidity;BME280_pressure;Samples;Min_cycle;Max_cycle;Signal;HPM_P1;HPM_P2
2022/03/09 05:38:21;;;;;;;9.55;4.78;;;;;;;-1.15;57.86;100873.11;1758088;80;21516;-57
2022/03/09 05:40:48;;;;;;;8.13;4.25;;;;;;;-1.09;57.43;100868.68;1751672;79;21511;-57
2022/03/09 05:43:15;;;;;;;8.98;4.35;;;;;;;-1.08;57.21;100869.94;1748144;79;21270;-57
2022/03/09 05:45:42;;;;;;;9.13;4.33;;;;;;;-1.09;56.93;100877.72;1744818;80;21176;-57
2022/03/09 05:48:09;;;;;;;7.28;4.25;;;;;;;-1.12;57.00;100882.08;1758065;79;21242;-57
2022/03/09 05:50:37;;;;;;;6.75;3.33;;;;;;;-1.12;56.96;100877.36;1732493;79;21592;-57
2022/03/09 05:53:04;;;;;;;7.92;4.15;;;;;;;-1.14;57.01;100883.86;1710855;82;21047;-57
2022/03/09 05:55:31;;;;;;;8.88;4.15;;;;;;;-1.14;57.39;100888.18;1710782;81;21090;-58
2022/03/09 05:57:57;;;;;;;9.60;4.78;;;;;;;-1.10;57.62;100892.38;1735532;78;21067;-57
2022/03/09 06:00:24;;;;;;;8.10;4.08;;;;;;;-1.05;57.09;100891.82;1704899;82;22098;-57
2022/03/09 06:02:51;;;;;;;9.33;4.72;;;;;;;-1.02;57.02;100887.04;1748134;79;20916;-57
2022/03/09 06:05:20;;;;;;;8.03;4.40;;;;;;;-0.99;56.99;100891.69;1741997;80;21146;-57
2022/03/09 06:07:49;;;;;;;8.85;4.30;;;;;;;-1.01;56.92;100888.72;1740929;80;21075;-57
2022/03/09 06:10:16;;;;;;;9.98;4.78;;;;;;;-0.96;57.49;100890.33;1739322;80;21102;-57
2022/03/09 06:12:44;;;;;;;8.15;4.03;;;;;;;-0.96;57.49;100890.33;1765697;79;21047;-57
2022/03/09 06:15:11;;;;;;;10.08;5.30;;;;;;;-0.92;56.95;100895.39;1713824;81;21055;-58
2022/03/09 06:17:47;;;;;;;7.83;4.28;;;;;;;-0.90;57.50;100893.19;1720127;81;21076;-57
2022/03/09 06:20:18;;;;;;;;;;;;;;;-0.90;57.50;100893.19;1751573;80;20984;-60
2022/03/09 06:22:45;;;;;;;8.55;4.70;;;;;;;-0.85;57.27;100902.97;1741296;80;20414;-57
2022/03/09 06:25:16;;;;;;;10.25;5.03;;;;;;;-0.90;56.08;100904.81;1755187;79;21178;-57
2022/03/09 06:27:47;;;;;;;9.65;4.90;;;;;;;-0.90;56.08;100904.81;1771179;79;21039;-57
2022/03/09 06:30:14;;;;;;;8.85;4.62;;;;;;;-0.96;56.01;100908.41;1773096;79;21074;-57
2022/03/09 06:32:43;;;;;;;8.30;4.87;;;;;;;-1.00;56.33;100909.80;1777663;79;21082;-55
2022/03/09 06:35:10;;;;;;;10.13;5.03;;;;;;;-1.03;55.96;100908.13;1772816;79;21517;-57
2022/03/09 06:37:37;;;;;;;8.90;4.50;;;;;;;-1.05;56.22;100913.78;1755827;79;21216;-57
2022/03/09 06:40:05;;;;;;;9.08;5.03;;;;;;;-1.04;56.71;100916.78;1772456;79;21105;-56
2022/03/09 06:42:33;;;;;;;9.20;4.20;;;;;;;-1.01;56.53;100919.72;1760929;78;21014;-57
2022/03/09 06:44:59;;;;;;;9.55;4.97;;;;;;;-0.97;56.80;100922.20;1735954;80;21110;-57
2022/03/09 06:47:26;;;;;;;9.88;5.25;;;;;;;-0.95;56.50;100923.45;1762138;80;21537;-57
2022/03/09 06:49:53;;;;;;;9.85;4.58;;;;;;;-0.91;56.25;100925.06;1775599;79;22524;-57
2022/03/09 06:52:20;;;;;;;10.75;4.97;;;;;;;-0.88;56.01;100926.30;1753121;79;21323;-57
2022/03/09 06:54:47;;;;;;;10.75;4.90;;;;;;;-0.92;55.77;100914.77;1763741;79;21113;-57
2022/03/09 06:57:14;;;;;;;10.25;4.92;;;;;;;-0.91;55.75;100921.20;1767426;79;21146;-57
2022/03/09 06:59:42;;;;;;;9.90;5.22;;;;;;;-0.91;55.91;100921.64;1763705;80;22361;-57
2022/03/09 07:02:09;;;;;;;9.80;4.80;;;;;;;-0.88;56.53;100918.99;1760181;79;21036;-57
2022/03/09 07:04:36;;;;;;;10.58;5.05;;;;;;;-0.76;56.68;100923.86;1774783;79;21569;-57
2022/03/09 07:07:04;;;;;;;8.78;4.65;;;;;;;-0.69;56.11;100924.13;1745561;79;21316;-57
2022/03/09 07:09:31;;;;;;;9.58;4.65;;;;;;;-0.60;55.79;100927.77;1746931;79;21055;-58
2022/03/09 07:11:58;;;;;;;8.53;4.65;;;;;;;-0.60;55.79;100927.77;1751184;79;21011;-57
2022/03/09 07:14:26;;;;;;;9.35;4.67;;;;;;;-0.53;55.46;100922.00;1759745;79;21350;-57
2022/03/09 07:16:53;;;;;;;9.95;5.35;;;;;;;-0.53;55.46;100922.00;1756254;79;21038;-57
2022/03/09 07:19:19;;;;;;;9.20;5.37;;;;;;;-0.54;54.93;100922.03;1748757;79;21584;-58
2022/03/09 07:21:47;;;;;;;9.05;4.53;;;;;;;-0.58;55.37;100925.98;1761605;80;21725;-57
2022/03/09 07:24:14;;;;;;;11.05;5.53;;;;;;;-0.60;55.42;100921.76;1758661;79;20997;-57
2022/03/09 07:26:42;;;;;;;8.90;4.62;;;;;;;-0.60;55.96;100923.89;1753359;79;21864;-58
2022/03/09 07:29:13;;;;;;;9.05;5.12;;;;;;;-0.52;55.93;100931.89;1766915;79;21070;-57
2022/03/09 07:31:40;;;;;;;8.83;4.97;;;;;;;-0.50;55.01;100927.55;1744209;79;21110;-58
2022/03/09 07:34:08;;;;;;;10.28;4.28;;;;;;;-0.47;55.04;100932.61;1736349;80;21490;-57
2022/03/09 07:36:36;;;;;;;9.15;4.37;;;;;;;-0.41;55.00;100932.02;1774450;79;21580;-57
2022/03/09 09:28:48;;;;;;;9.33;5.67;;;;;;;0.50;54.59;100919.16;1768133;79;21564;-56
2022/03/09 09:31:15;;;;;;;10.03;5.87;;;;;;;0.62;53.94;100916.65;1767545;80;21098;-56
2022/03/09 09:33:42;;;;;;;10.05;5.53;;;;;;;0.71;53.69;100915.55;1754700;80;21730;-56
2022/03/09 09:36:09;;;;;;;9.75;5.40;;;;;;;0.80;53.60;100923.02;1771087;80;21510;-58
2022/03/09 09:38:35;;;;;;;12.93;6.37;;;;;;;0.88;53.00;100916.32;1756176;79;21047;-56
2022/03/09 09:41:03;;;;;;;9.40;5.53;;;;;;;0.89;53.00;100919.29;1768238;79;21221;-57
2022/03/09 09:43:30;;;;;;;10.08;5.55;;;;;;;0.91;52.67;100917.52;1766116;79;21074;-57
2022/03/09 09:45:58;;;;;;;9.85;5.30;;;;;;;0.94;52.92;100918.70;1755074;80;21035;-56
2022/03/09 09:48:24;;;;;;;10.08;6.03;;;;;;;1.01;53.02;100915.47;1770969;79;21058;-56
2022/03/09 09:50:53;;;;;;;10.85;5.83;;;;;;;1.08;52.42;100915.69;1764327;80;21023;-56
2022/03/09 09:53:20;;;;;;;8.98;5.33;;;;;;;1.14;52.62;100905.56;1755686;79;23364;-58
2022/03/09 09:55:47;;;;;;;10.13;5.67;;;;;;;1.21;52.85;100912.23;1762461;79;21549;-57
2022/03/09 09:58:14;;;;;;;12.43;6.33;;;;;;;1.29;51.87;100912.83;1749729;79;21549;-56
2022/03/09 10:00:43;;;;;;;10.10;5.50;;;;;;;1.43;52.15;100908.48;1752437;80;21057;-56
2022/03/09 10:03:10;;;;;;;11.00;5.92;;;;;;;1.53;51.79;100909.89;1758414;79;21814;-56
2022/03/09 10:05:38;;;;;;;12.95;5.33;;;;;;;1.53;51.18;100902.53;1745577;80;21223;-56
2022/03/09 10:08:08;;;;;;;10.53;6.28;;;;;;;1.58;51.40;100911.87;1747293;79;21097;-56
2022/03/09 10:10:43;;;;;;;11.45;6.42;;;;;;;1.53;51.19;100912.48;1759139;79;21331;-55
2022/03/09 10:13:24;;;;;;;8.38;4.78;;;;;;;1.56;51.32;100914.95;1757238;80;21509;-56
2022/03/09 10:16:16;;;;;;;12.05;5.95;;;;;;;1.65;51.60;100912.05;1760433;80;21466;-56
2022/03/09 10:18:54;;;;;;;8.45;4.85;;;;;;;1.69;51.22;100918.44;1757582;79;21493;-55
2022/03/09 10:21:28;;;;;;;9.40;5.55;;;;;;;1.69;50.62;100913.25;1759838;79;21358;-56
2022/03/09 10:24:09;;;;;;;9.08;5.72;;;;;;;1.70;50.57;100918.39;1749727;80;21050;-56
2022/03/09 10:26:43;;;;;;;9.20;5.22;;;;;;;1.71;50.84;100920.06;1765871;79;21509;-55
2022/03/09 10:29:14;;;;;;;9.08;5.12;;;;;;;1.73;51.00;100919.59;1751342;80;21058;-55
2022/03/09 10:31:47;;;;;;;12.40;6.08;;;;;;;1.71;50.63;100907.55;1759705;80;21203;-55
2022/03/09 10:34:19;;;;;;;11.53;5.70;;;;;;;1.78;50.67;100922.00;1743963;80;21079;-57
2022/03/09 10:37:06;;;;;;;8.85;5.40;;;;;;;1.86;50.80;100917.39;1755919;81;20990;-56
2022/03/09 10:39:39;;;;;;;10.30;5.78;;;;;;;1.95;50.05;100918.80;1753829;80;21054;-57
2022/03/09 10:42:23;;;;;;;9.85;5.25;;;;;;;1.96;49.98;100914.86;1762366;80;21027;-57
2022/03/09 10:44:51;;;;;;;9.88;4.83;;;;;;;1.96;49.94;100918.75;1754836;79;21190;-56
2022/03/09 10:47:34;;;;;;;11.03;5.53;;;;;;;2.01;49.99;100919.89;1753039;80;21049;-56
2022/03/09 10:50:18;;;;;;;11.43;5.10;;;;;;;2.01;49.95;100914.23;1744915;80;21022;-57
2022/03/09 10:52:52;;;;;;;10.10;5.58;;;;;;;2.08;50.14;100912.73;1761026;79;21034;-58
2022/03/09 10:55:35;;;;;;;11.85;5.90;;;;;;;2.11;49.92;100913.47;1745242;79;20999;-55
2022/03/09 10:58:22;;;;;;;8.38;4.35;;;;;;;2.10;49.90;100908.33;1756597;79;22308;-57
2022/03/09 11:00:52;;;;;;;8.80;4.30;;;;;;;2.08;49.75;100909.67;1756690;79;21534;-55
2022/03/09 11:03:24;;;;;;;8.80;5.22;;;;;;;2.11;49.94;100910.03;1750184;79;21419;-56
2022/03/09 11:06:01;;;;;;;7.92;4.35;;;;;;;2.13;49.30;100906.92;1750141;79;21593;-56
2022/03/09 11:08:34;;;;;;;8.83;4.15;;;;;;;2.16;48.44;100904.22;1756092;80;22254;-56
2022/03/09 11:11:01;;;;;;;9.50;4.25;;;;;;;2.12;49.52;100909.98;1760126;80;21561;-56
2022/03/09 11:13:32;;;;;;;8.10;5.10;;;;;;;2.11;50.22;100911.33;1763312;79;21550;-56
2022/03/09 11:16:01;;;;;;;9.85;4.92;;;;;;;2.06;50.29;100908.89;1752372;79;21105;-56
2022/03/09 11:18:29;;;;;;;9.23;4.35;;;;;;;2.02;50.36;100916.41;1746877;80;21511;-56
2022/03/09 11:21:00;;;;;;;8.68;4.75;;;;;;;2.00;50.88;100915.16;1745883;80;21046;-56
2022/03/09 11:23:29;;;;;;;7.85;4.53;;;;;;;1.96;51.11;100914.02;1745352;80;21190;-57
2022/03/09 11:26:07;;;;;;;9.93;4.72;;;;;;;1.92;50.69;100917.19;1725130;81;21477;-55
2022/03/09 11:57:53;;;;;;;7.80;4.08;;;;;;;2.01;49.26;100923.33;1759682;80;21046;-56
2022/03/09 12:00:21;;;;;;;5.95;2.72;;;;;;;2.03;49.40;100925.44;1761728;79;20983;-55
2022/03/09 12:02:54;;;;;;;6.65;2.90;;;;;;;2.01;47.04;100918.13;1724540;80;21521;-56
2022/03/09 12:05:41;;;;;;;6.83;2.30;;;;;;;2.04;46.66;100924.52;1756589;80;21054;-55
2022/03/09 12:08:12;;;;;;;6.62;2.95;;;;;;;2.02;45.65;100919.84;1757960;79;21146;-56
2022/03/09 12:10:51;;;;;;;6.70;3.30;;;;;;;2.05;45.78;100926.66;1747561;79;21001;-56
2022/03/09 12:13:35;;;;;;;9.75;4.42;;;;;;;2.07;46.58;100925.30;1768483;79;21047;-55
2022/03/09 12:16:15;;;;;;;7.60;4.17;;;;;;;2.08;47.87;100929.61;1755551;81;21165;-56
2022/03/09 12:18:51;;;;;;;6.97;3.02;;;;;;;2.07;48.23;100929.20;1762681;79;21057;-55
2022/03/09 12:21:34;;;;;;;6.67;3.05;;;;;;;2.05;48.25;100931.84;1749104;79;21062;-55
2022/03/09 12:24:06;;;;;;;5.08;2.52;;;;;;;2.01;47.48;100936.77;1728249;80;21048;-56
2022/03/09 12:26:49;;;;;;;5.70;2.45;;;;;;;1.97;46.06;100930.84;1762865;79;21102;-56
2022/03/09 12:29:34;;;;;;;4.85;2.25;;;;;;;1.96;46.56;100937.38;1734874;80;21516;-56
2022/03/09 12:32:11;;;;;;;4.67;2.12;;;;;;;1.95;46.73;100938.27;1697489;81;21091;-56
2022/03/09 12:34:42;;;;;;;5.95;2.58;;;;;;;1.91;46.91;100936.23;1768110;79;21750;-56
2022/03/09 12:37:16;;;;;;;5.67;2.33;;;;;;;1.86;47.09;100942.04;1751961;79;21682;-55
2022/03/09 12:39:53;;;;;;;5.67;2.45;;;;;;;1.83;47.14;100942.14;1756767;79;21094;-56
2022/03/09 12:42:20;;;;;;;7.17;3.75;;;;;;;1.79;47.63;100938.81;1739119;80;21038;-55
2022/03/09 12:44:48;;;;;;;8.20;3.58;;;;;;;1.76;48.72;100941.97;1762347;79;21559;-56
2022/03/09 12:47:16;;;;;;;8.20;3.85;;;;;;;1.69;50.48;100946.52;1746615;79;21129;-57
2022/03/09 12:49:43;;;;;;;7.00;3.95;;;;;;;1.59;52.05;100952.92;1739174;80;21101;-56
2022/03/09 12:52:15;;;;;;;7.47;3.72;;;;;;;1.47;52.99;100946.39;1756922;79;21154;-56
2022/03/09 12:54:54;;;;;;;8.63;4.17;;;;;;;1.42;54.04;100950.43;1758006;80;22061;-57
2022/03/09 12:57:28;;;;;;;9.53;3.98;;;;;;;1.38;54.91;100944.09;1763736;79;21086;-56
2022/03/09 13:00:09;;;;;;;7.58;3.90;;;;;;;1.30;55.66;100955.56;1744962;79;21074;-56
2022/03/09 13:02:40;;;;;;;6.28;3.30;;;;;;;1.18;56.77;100953.38;1778064;78;21026;-58
2022/03/09 13:05:08;;;;;;;7.92;3.65;;;;;;;1.07;56.60;100946.38;1743530;80;21079;-57
2022/03/09 13:07:35;;;;;;;7.33;3.45;;;;;;;1.06;55.82;100949.86;1738658;80;21051;-57
2022/03/09 13:10:12;;;;;;;5.97;3.00;;;;;;;1.04;55.54;100945.17;1755914;79;21664;-56
2022/03/09 13:12:56;;;;;;;6.95;3.12;;;;;;;1.08;55.26;100941.16;1762330;79;21252;-56
2022/03/09 13:15:44;;;;;;;6.60;3.30;;;;;;;1.14;54.36;100939.26;1728520;80;21077;-56
2022/03/09 13:18:33;;;;;;;6.33;2.90;;;;;;;1.19;54.87;100942.09;1739909;80;21071;-56
2022/03/09 13:21:01;;;;;;;6.22;2.60;;;;;;;1.29;54.19;100952.59;1737193;80;21051;-56
2022/03/09 13:23:37;;;;;;;5.37;2.87;;;;;;;1.36;54.52;100951.08;1734738;80;21562;-56
2022/03/09 13:26:19;;;;;;;6.42;2.55;;;;;;;1.47;53.99;100954.17;1731745;80;21187;-56
2022/03/09 13:28:49;;;;;;;6.37;3.33;;;;;;;1.47;53.97;100958.91;1731423;80;21165;-56
2022/03/09 13:31:17;;;;;;;8.33;4.03;;;;;;;1.42;57.50;100959.97;1732804;80;21059;-55
2022/03/09 13:33:47;;;;;;;8.13;4.42;;;;;;;1.18;61.77;100969.36;1774907;79;20995;-55
2022/03/09 13:36:15;;;;;;;8.75;4.47;;;;;;;0.91;64.29;100972.78;1780427;80;21089;-55
2022/03/09 13:38:58;;;;;;;7.70;3.40;;;;;;;0.67;66.35;100975.67;1746337;79;21186;-55
2022/03/09 13:41:26;;;;;;;7.97;3.62;;;;;;;0.43;67.72;100979.80;1738527;80;21157;-54
2022/03/09 13:43:53;;;;;;;9.80;6.22;;;;;;;0.19;69.13;100982.63;1737946;80;21554;-55
2022/03/09 13:46:25;;;;;;;9.45;6.00;;;;;;;0.01;70.96;100981.38;1760728;80;20995;-55
2022/03/09 13:49:14;;;;;;;14.70;7.30;;;;;;;-0.13;71.82;100988.67;1759812;79;21180;-56
2022/03/09 16:43:39;;;;;;;19.77;13.48;;;;;;;-0.22;66.49;101087.59;1727262;81;21262;-56
2022/03/09 16:46:11;;;;;;;21.62;13.93;;;;;;;-0.24;66.11;101097.11;1710395;80;21113;-57
2022/03/09 16:48:35;;;;;;;21.90;13.05;;;;;;;-0.23;65.54;101103.15;1720564;81;21022;-57
2022/03/09 16:51:03;;;;;;;15.60;10.58;;;;;;;-0.21;64.69;101104.80;1728325;80;21117;-57
2022/03/09 16:53:30;;;;;;;13.00;8.95;;;;;;;-0.21;64.69;101104.80;1739419;80;21237;-57
2022/03/09 16:55:57;;;;;;;14.55;9.25;;;;;;;-0.16;64.40;101116.78;1722415;81;21063;-57
2022/03/09 16:58:24;;;;;;;16.42;9.50;;;;;;;-0.13;64.07;101115.43;1741902;80;21075;-57
2022/03/09 17:00:51;;;;;;;13.83;7.97;;;;;;;-0.15;63.58;101109.41;1754804;79;21054;-57
2022/03/09 17:03:18;;;;;;;14.68;8.90;;;;;;;-0.16;63.42;101120.67;1743789;80;21415;-57
2022/03/09 17:05:45;;;;;;;11.73;7.55;;;;;;;-0.17;63.20;101125.42;1765567;80;21189;-57
2022/03/09 17:08:15;;;;;;;12.10;8.35;;;;;;;-0.17;63.20;101125.42;1725477;81;21173;-57
2022/03/09 17:10:42;;;;;;;16.35;8.23;;;;;;;-0.15;63.32;101131.41;1758683;80;21091;-58
2022/03/09 17:13:11;;;;;;;14.28;8.60;;;;;;;-0.12;62.80;101127.00;1757482;80;21078;-57
2022/03/09 17:15:39;;;;;;;11.85;7.05;;;;;;;-0.11;62.67;101127.42;1709840;80;21727;-57
2022/03/09 17:18:06;;;;;;;11.35;7.05;;;;;;;-0.10;62.74;101126.97;1758782;77;21137;-56
2022/03/09 17:20:34;;;;;;;11.90;7.22;;;;;;;-0.04;62.65;101129.42;1759396;79;21060;-57
2022/03/09 17:23:01;;;;;;;13.30;7.40;;;;;;;-0.02;62.43;101131.52;1783746;79;21501;-56
2022/03/09 17:25:28;;;;;;;15.93;7.22;;;;;;;-0.03;62.30;101128.09;1741121;79;21431;-58
2022/03/09 17:27:55;;;;;;;13.65;8.48;;;;;;;-0.04;62.31;101128.13;1742675;79;21051;-57
2022/03/09 17:30:23;;;;;;;13.53;7.90;;;;;;;-0.03;62.33;101140.19;1751567;79;21161;-57
2022/03/09 17:32:50;;;;;;;11.55;7.42;;;;;;;-0.06;62.40;101134.63;1765255;78;21044;-57
2022/03/09 17:35:17;;;;;;;15.50;8.50;;;;;;;-0.06;62.40;101134.63;1783231;79;21078;-56
2022/03/09 17:37:44;;;;;;;12.23;7.97;;;;;;;-0.08;62.36;101131.23;1787774;78;21093;-56
2022/03/09 17:40:12;;;;;;;14.38;8.50;;;;;;;-0.10;62.35;101138.19;1803061;78;21070;-56
2022/03/09 17:42:39;;;;;;;13.93;7.75;;;;;;;-0.06;62.26;101150.61;1779578;79;21245;-56
2022/03/09 17:45:08;;;;;;;11.75;6.60;;;;;;;-0.06;62.35;101157.08;1779659;78;21145;-55
2022/03/09 17:47:35;;;;;;;13.80;7.70;;;;;;;-0.04;62.58;101158.72;1774595;79;21026;-55
2022/03/09 17:50:04;;;;;;;13.00;8.23;;;;;;;-0.01;62.65;101162.98;1762154;78;21026;-57
2022/03/09 17:52:32;;;;;;;13.85;8.53;;;;;;;0.02;62.47;101167.22;1751955;79;21172;-56
2022/03/09 17:55:02;;;;;;;15.35;8.48;;;;;;;0.06;61.99;101168.41;1768733;79;22112;-58
2022/03/09 17:57:29;;;;;;;12.80;7.40;;;;;;;0.08;61.78;101176.98;1748378;78;21122;-56
2022/03/09 17:59:56;;;;;;;15.08;7.60;;;;;;;0.08;61.78;101176.98;1744300;79;21034;-57
2022/03/09 18:02:24;;;;;;;14.53;8.63;;;;;;;0.11;62.01;101174.33;1787899;79;21059;-56
2022/03/09 18:04:51;;;;;;;13.90;7.75;;;;;;;0.14;61.93;101176.01;1770365;79;21561;-56
2022/03/09 18:07:18;;;;;;;13.08;6.95;;;;;;;0.16;61.53;101173.78;1781674;77;21126;-56
2022/03/09 18:09:44;;;;;;;10.50;6.05;;;;;;;0.22;61.29;101174.52;1794876;79;20984;-56
2022/03/09 18:12:11;;;;;;;9.93;5.40;;;;;;;0.22;61.05;101177.97;1770512;78;21019;-55
2022/03/09 18:14:38;;;;;;;10.00;5.72;;;;;;;0.26;60.49;101172.27;1767858;79;21086;-56
2022/03/09 18:17:05;;;;;;;12.63;5.97;;;;;;;0.28;60.31;101186.02;1748912;80;21173;-56
2022/03/09 18:19:32;;;;;;;9.65;5.70;;;;;;;0.26;60.24;101192.53;1781933;79;22050;-56
2022/03/09 18:22:00;;;;;;;8.00;5.12;;;;;;;0.20;60.21;101198.30;1762502;78;21090;-56
2022/03/09 18:24:27;;;;;;;9.23;4.83;;;;;;;0.17;60.30;101196.20;1760757;80;21442;-56
2022/03/09 18:26:54;;;;;;;9.85;5.55;;;;;;;0.15;60.14;101199.27;1744850;81;21180;-55
2022/03/09 18:29:21;;;;;;;8.98;4.85;;;;;;;0.12;59.95;101206.26;1723419;80;21081;-56
2022/03/09 18:31:47;;;;;;;8.28;4.85;;;;;;;0.12;59.95;101206.26;1718521;81;21281;-56
2022/03/09 18:34:15;;;;;;;8.70;4.60;;;;;;;0.08;60.15;101200.73;1772301;80;21482;-56
2022/03/09 18:36:42;;;;;;;8.30;4.45;;;;;;;0.10;59.84;101205.00;1750154;80;21094;-56
2022/03/09 18:39:11;;;;;;;8.13;4.87;;;;;;;0.10;59.91;101205.42;1733274;80;21037;-57
2022/03/09 18:41:38;;;;;;;9.43;4.80;;;;;;;0.10;59.91;101205.42;1753967;80;21182;-57
